Time;durP1;ratioP1;P1;durP2;ratioP2;P2;SDS_P1;SDS_P2;PMS_P1;PMS_P2;Temp;Humidity;BMP_temperature;BMP_pressure;BME280_temperature;BME280_humidity;BME280_pressure;Samples;Min_cycle;Max_cycle;Signal;HPM_P1;HPM_P2
2022/09/18 00:01:30;;;;;;;6.55;0.40;;;11.10;99.90;;;;;;5059141;28;20110;-78
2022/09/18 00:03:58;;;;;;;6.70;0.40;;;11.10;99.90;;;;;;5060301;28;20501;-79
2022/09/18 00:06:27;;;;;;;6.05;0.55;;;11.20;99.90;;;;;;5058709;28;20370;-78
2022/09/18 00:08:56;;;;;;;6.20;0.40;;;11.20;99.90;;;;;;5040820;28;20032;-79
2022/09/18 00:11:25;;;;;;;5.72;0.38;;;11.20;99.90;;;;;;5042618;28;20045;-78
2022/09/18 00:13:51;;;;;;;4.03;0.50;;;11.20;99.90;;;;;;5041874;28;20063;-78
2022/09/18 00:16:19;;;;;;;6.03;0.65;;;11.20;99.90;;;;;;5078418;28;20024;-79
2022/09/18 00:18:45;;;;;;;3.05;0.50;;;11.20;99.90;;;;;;5042767;28;20057;-78
2022/09/18 00:21:14;;;;;;;10.82;0.65;;;11.20;99.90;;;;;;5040988;28;20480;-79
2022/09/18 00:23:41;;;;;;;7.20;0.60;;;11.20;99.90;;;;;;5043109;28;20090;-79
2022/09/18 00:26:09;;;;;;;9.43;1.17;;;11.30;99.90;;;;;;5040550;28;20037;-78
2022/09/18 00:28:36;;;;;;;9.30;0.85;;;11.30;99.90;;;;;;5043112;28;20063;-78
2022/09/18 00:31:07;;;;;;;7.63;1.05;;;11.30;99.90;;;;;;5059830;28;20497;-79
2022/09/18 00:33:33;;;;;;;6.22;0.82;;;11.30;99.90;;;;;;5059200;28;20032;-78
2022/09/18 00:36:03;;;;;;;9.20;0.90;;;11.30;99.90;;;;;;5077163;28;20032;-78
2022/09/18 00:38:30;;;;;;;;;;;11.30;99.90;;;;;;5039908;28;20063;-78
2022/09/18 00:40:57;;;;;;;4.90;0.63;;;11.30;99.90;;;;;;5040556;28;20311;-79
2022/09/18 00:43:25;;;;;;;7.40;0.57;;;11.30;99.90;;;;;;5058589;28;20476;-78
2022/09/18 00:45:53;;;;;;;4.03;0.50;;;11.30;99.90;;;;;;5027240;28;20028;-79
2022/09/18 00:48:21;;;;;;;10.07;0.88;;;11.30;99.90;;;;;;5043306;28;20021;-80
2022/09/18 00:50:47;;;;;;;7.57;0.70;;;11.30;99.90;;;;;;5042641;28;20060;-78
2022/09/18 00:53:12;;;;;;;5.00;0.40;;;11.30;99.90;;;;;;5042933;28;20018;-79
2022/09/18 00:55:39;;;;;;;8.80;0.50;;;11.30;99.90;;;;;;5042787;28;20044;-79
2022/09/18 00:58:05;;;;;;;5.82;0.55;;;11.30;99.90;;;;;;5058825;28;20017;-79
2022/09/18 01:00:31;;;;;;;6.93;0.50;;;11.30;99.90;;;;;;5060560;28;20033;-79
2022/09/18 01:03:00;;;;;;;13.27;0.90;;;11.30;99.90;;;;;;5041020;28;20069;-79
2022/09/18 01:05:56;;;;;;;4.97;0.30;;;11.40;99.90;;;;;;5042854;28;20045;-78
2022/09/18 01:08:56;;;;;;;5.85;0.43;;;11.40;99.90;;;;;;5038631;28;20029;-79
2022/09/18 01:11:30;;;;;;;6.57;0.40;;;11.40;99.90;;;;;;5052359;28;20106;-79
2022/09/18 01:14:25;;;;;;;7.05;0.50;;;11.30;99.90;;;;;;5056129;28;20486;-79
2022/09/18 01:17:00;;;;;;;9.52;1.10;;;11.40;99.90;;;;;;5021981;28;20021;-80
2022/09/18 01:19:38;;;;;;;6.22;0.40;;;11.40;99.90;;;;;;5042527;28;20056;-79
2022/09/18 01:22:33;;;;;;;5.32;0.55;;;11.40;99.90;;;;;;5042276;28;20017;-79
2022/09/18 01:25:43;;;;;;;7.18;0.40;;;11.40;99.90;;;;;;5041477;28;20075;-79
2022/09/18 01:28:21;;;;;;;8.52;0.47;;;11.30;99.90;;;;;;5073364;28;20478;-81
2022/09/18 01:30:49;;;;;;;6.65;0.40;;;11.30;99.90;;;;;;5076138;28;20456;-78
2022/09/18 01:33:27;;;;;;;7.70;0.50;;;11.30;99.90;;;;;;5075498;28;20488;-80
2022/09/18 01:35:57;;;;;;;3.28;0.40;;;11.30;99.90;;;;;;5040925;28;20397;-81
2022/09/18 01:38:32;;;;;;;7.43;0.52;;;11.30;99.90;;;;;;5039394;28;20552;-79
2022/09/18 01:41:08;;;;;;;8.43;0.55;;;11.30;99.90;;;;;;5039991;28;20461;-80
2022/09/18 01:43:36;;;;;;;7.78;0.55;;;11.30;99.90;;;;;;5040926;28;20017;-79
2022/09/18 01:46:08;;;;;;;8.02;0.52;;;11.30;99.90;;;;;;5042197;28;20501;-79
2022/09/18 01:48:47;;;;;;;9.13;0.50;;;11.30;99.90;;;;;;5042868;28;20113;-80
2022/09/18 01:51:33;;;;;;;3.72;0.30;;;11.30;99.90;;;;;;5075720;28;20035;-79
2022/09/18 01:54:05;;;;;;;4.28;0.30;;;11.30;99.90;;;;;;5040538;28;20044;-81
2022/09/18 01:56:36;;;;;;;4.55;0.30;;;11.30;99.90;;;;;;5039564;28;20374;-81
2022/09/18 01:59:10;;;;;;;5.88;0.73;;;11.30;99.90;;;;;;5036134;28;20049;-79
2022/09/18 02:01:48;;;;;;;5.45;0.40;;;11.30;99.90;;;;;;5041238;28;20083;-80
2022/09/18 02:04:28;;;;;;;9.20;0.32;;;11.40;99.90;;;;;;5036307;28;20072;-80
2022/09/18 02:07:13;;;;;;;4.80;0.30;;;11.40;99.90;;;;;;5074240;28;20045;-80
2022/09/18 02:09:41;;;;;;;7.68;0.30;;;11.40;99.90;;;;;;5074736;28;20041;-79
2022/09/18 02:12:11;;;;;;;5.85;0.30;;;11.30;99.90;;;;;;5072899;28;20017;-79
2022/09/18 02:14:41;;;;;;;4.73;0.70;;;11.30;99.90;;;;;;5057265;28;20537;-80
2022/09/18 02:17:30;;;;;;;8.77;0.50;;;11.30;99.90;;;;;;5040184;28;20033;-82
2022/09/18 02:20:07;;;;;;;5.70;0.40;;;11.40;99.90;;;;;;5024024;28;20079;-79
2022/09/18 02:22:34;;;;;;;5.25;0.40;;;11.30;99.90;;;;;;5041906;28;20390;-80
2022/09/18 02:25:04;;;;;;;7.22;0.52;;;11.30;99.90;;;;;;5059329;28;20474;-81
2022/09/18 02:27:33;;;;;;;5.75;0.30;;;11.30;99.90;;;;;;5058530;28;20066;-81
2022/09/18 02:30:01;;;;;;;5.20;0.20;;;11.30;99.90;;;;;;5041226;28;20028;-80
2022/09/18 02:32:26;;;;;;;6.05;0.30;;;11.30;99.90;;;;;;5040751;28;20055;-80
2022/09/18 02:34:52;;;;;;;4.85;0.45;;;11.20;99.90;;;;;;5038990;28;20021;-80
2022/09/18 02:37:20;;;;;;;3.05;0.30;;;11.20;99.90;;;;;;5024695;28;20444;-83
2022/09/18 02:40:00;;;;;;;2.22;0.30;;;11.20;99.90;;;;;;5037671;28;20027;-80
2022/09/18 02:42:28;;;;;;;5.03;0.30;;;11.20;99.90;;;;;;5042668;28;20041;-82
2022/09/18 02:45:05;;;;;;;8.38;0.40;;;11.20;99.90;;;;;;5045508;28;20283;-81
2022/09/18 02:48:08;;;;;;;8.05;0.60;;;11.20;99.90;;;;;;5030868;28;20051;-81
2022/09/18 02:51:02;;;;;;;4.03;0.30;;;11.20;99.90;;;;;;4999976;28;20479;-81
2022/09/18 02:53:46;;;;;;;6.80;0.35;;;11.20;99.90;;;;;;4969581;28;20181;-81
2022/09/18 02:56:26;;;;;;;4.60;0.32;;;11.20;99.90;;;;;;4949839;28;20019;-81
2022/09/18 02:59:10;;;;;;;6.53;0.40;;;11.20;99.90;;;;;;4982409;28;20063;-82
2022/09/18 03:01:40;;;;;;;8.15;0.43;;;11.20;99.90;;;;;;4951321;28;20226;-82
2022/09/18 03:04:13;;;;;;;3.47;0.47;;;11.20;99.90;;;;;;4967155;28;20061;-79
2022/09/18 03:06:53;;;;;;;6.47;0.38;;;11.20;99.90;;;;;;4984813;28;20089;-82
2022/09/18 03:09:19;;;;;;;7.32;0.30;;;11.20;99.90;;;;;;4967572;28;20029;-80
2022/09/18 03:11:46;;;;;;;4.60;0.30;;;11.20;99.90;;;;;;4966540;28;20117;-79
2022/09/18 03:14:12;;;;;;;7.80;0.50;;;11.20;99.90;;;;;;4967389;28;20085;-81
2022/09/18 03:16:38;;;;;;;7.60;1.13;;;11.20;99.90;;;;;;4969073;28;20033;-81
2022/09/18 03:19:04;;;;;;;7.40;0.40;;;11.10;99.90;;;;;;4968574;28;20129;-81
2022/09/18 03:21:30;;;;;;;6.57;0.30;;;11.10;99.90;;;;;;4983216;28;20099;-79
2022/09/18 03:23:55;;;;;;;10.63;0.50;;;11.10;99.90;;;;;;4950662;28;20027;-82
2022/09/18 03:26:28;;;;;;;5.93;0.40;;;11.10;99.90;;;;;;5012970;28;20102;-80
2022/09/18 03:28:53;;;;;;;5.78;0.30;;;11.10;99.90;;;;;;5076750;28;20025;-81
2022/09/18 03:31:20;;;;;;;5.85;0.30;;;11.10;99.90;;;;;;5042913;28;20087;-81
2022/09/18 03:33:46;;;;;;;6.13;0.80;;;11.10;99.90;;;;;;5078689;28;20021;-81
2022/09/18 03:36:12;;;;;;;4.82;0.30;;;11.10;99.90;;;;;;5042024;28;20504;-82
2022/09/18 03:38:40;;;;;;;7.13;0.30;;;11.10;99.90;;;;;;5043120;28;20029;-81
2022/09/18 03:41:06;;;;;;;7.15;0.40;;;11.10;99.90;;;;;;5042463;28;20485;-84
2022/09/18 03:43:33;;;;;;;4.32;0.65;;;11.10;99.90;;;;;;5039670;28;20039;-80
2022/09/18 03:46:00;;;;;;;6.28;0.40;;;11.10;99.90;;;;;;5078338;28;20041;-81
2022/09/18 03:48:26;;;;;;;2.65;0.30;;;11.10;99.90;;;;;;5041465;28;20036;-81
2022/09/18 03:50:51;;;;;;;7.40;0.40;;;11.10;99.90;;;;;;5042259;28;20481;-81
2022/09/18 03:53:17;;;;;;;6.28;0.38;;;11.10;99.90;;;;;;5076347;28;20068;-80
2022/09/18 03:56:05;;;;;;;6.20;0.43;;;11.10;99.90;;;;;;5038581;28;20154;-80
2022/09/18 03:58:50;;;;;;;3.55;0.32;;;11.10;99.90;;;;;;5044394;28;20559;-81
2022/09/18 04:01:32;;;;;;;6.40;0.50;;;11.10;99.90;;;;;;5032468;28;20052;-79
2022/09/18 04:04:16;;;;;;;9.82;0.40;;;11.10;99.90;;;;;;5041399;28;20070;-80
2022/09/18 04:07:08;;;;;;;7.53;0.35;;;11.10;99.90;;;;;;5031950;28;20131;-81
2022/09/18 04:09:57;;;;;;;4.32;0.30;;;11.10;99.90;;;;;;5057366;28;20090;-80
2022/09/18 04:12:23;;;;;;;7.63;0.40;;;11.10;99.90;;;;;;5058922;28;20033;-81
2022/09/18 04:15:03;;;;;;;5.85;0.28;;;11.10;99.90;;;;;;5050673;28;20439;-80
2022/09/18 04:17:29;;;;;;;4.95;0.20;;;11.10;99.90;;;;;;5061584;28;20111;-81
2022/09/18 04:19:57;;;;;;;4.70;0.30;;;11.10;99.90;;;;;;5046238;28;20175;-79
2022/09/18 04:22:24;;;;;;;5.20;0.55;;;11.10;99.90;;;;;;5057987;28;20023;-80
2022/09/18 04:24:49;;;;;;;7.75;0.30;;;11.10;99.90;;;;;;5060730;28;20029;-81
2022/09/18 04:27:16;;;;;;;2.90;0.30;;;11.10;99.90;;;;;;5063147;28;20071;-80
2022/09/18 04:29:42;;;;;;;7.13;0.40;;;11.10;99.90;;;;;;5095876;28;20457;-79
2022/09/18 04:32:10;;;;;;;5.18;0.40;;;11.10;99.90;;;;;;5045425;28;20111;-81
2022/09/18 04:34:36;;;;;;;4.57;0.40;;;11.10;99.90;;;;;;5057993;28;20564;-81
2022/09/18 04:37:02;;;;;;;3.53;0.22;;;11.10;99.90;;;;;;5061611;28;20020;-80
2022/09/18 04:39:31;;;;;;;7.80;0.50;;;11.10;99.90;;;;;;5059722;28;20067;-80
2022/09/18 04:41:59;;;;;;;5.43;0.57;;;11.10;99.90;;;;;;5063480;28;20078;-79
2022/09/18 04:44:25;;;;;;;4.78;0.50;;;11.10;99.90;;;;;;5095353;28;20024;-81
2022/09/18 04:46:51;;;;;;;3.47;0.20;;;11.10;99.90;;;;;;5044004;28;20089;-80
2022/09/18 04:49:17;;;;;;;8.02;0.43;;;11.10;99.90;;;;;;5062349;28;20029;-79
2022/09/18 04:51:44;;;;;;;7.13;0.30;;;11.10;99.90;;;;;;5056713;28;20070;-79
2022/09/18 04:54:09;;;;;;;2.95;0.20;;;11.10;99.90;;;;;;5054965;28;20021;-79
2022/09/18 04:56:36;;;;;;;4.97;0.30;;;11.10;99.90;;;;;;5049604;28;20032;-80
2022/09/18 04:59:02;;;;;;;6.95;0.50;;;11.10;99.90;;;;;;5095977;28;20503;-80
2022/09/18 05:01:28;;;;;;;5.53;0.40;;;11.10;99.90;;;;;;5063138;28;20388;-81
2022/09/18 05:03:56;;;;;;;5.88;0.30;;;11.10;99.90;;;;;;5054466;28;20029;-83
2022/09/18 05:06:28;;;;;;;4.07;0.30;;;11.10;99.90;;;;;;5053526;28;20064;-79
2022/09/18 05:08:57;;;;;;;2.42;0.20;;;11.10;99.90;;;;;;5097122;28;20024;-80
2022/09/18 05:11:23;;;;;;;4.57;0.30;;;11.10;99.90;;;;;;5095514;28;20496;-81
2022/09/18 05:13:51;;;;;;;2.38;0.30;;;11.10;99.90;;;;;;5061006;28;20112;-81
2022/09/18 05:16:17;;;;;;;5.07;0.40;;;11.10;99.90;;;;;;5054244;28;20108;-81
2022/09/18 05:18:54;;;;;;;3.58;0.43;;;11.10;99.90;;;;;;5049231;28;20416;-79
2022/09/18 05:21:20;;;;;;;6.32;0.60;;;11.10;99.90;;;;;;5061049;28;20078;-81
2022/09/18 05:23:46;;;;;;;3.58;0.30;;;11.10;99.90;;;;;;5048754;28;20039;-84
2022/09/18 05:26:13;;;;;;;3.65;0.30;;;11.10;99.90;;;;;;5053576;28;20516;-80
2022/09/18 05:28:39;;;;;;;2.13;0.20;;;11.10;99.90;;;;;;5060520;28;20052;-81
2022/09/18 05:31:04;;;;;;;3.25;0.20;;;11.10;99.90;;;;;;5060406;28;20056;-82
2022/09/18 05:33:37;;;;;;;5.00;0.45;;;11.10;99.90;;;;;;5061733;28;20036;-81
2022/09/18 05:36:04;;;;;;;3.92;0.40;;;11.10;99.90;;;;;;5061499;28;20025;-80
2022/09/18 05:38:30;;;;;;;2.83;0.20;;;11.10;99.90;;;;;;5058691;28;20094;-80
2022/09/18 05:41:01;;;;;;;6.38;0.30;;;11.10;99.90;;;;;;5048548;28;20472;-81
2022/09/18 05:43:28;;;;;;;3.47;0.28;;;11.10;99.90;;;;;;5058322;28;20025;-81
2022/09/18 05:45:53;;;;;;;6.10;0.95;;;11.10;99.90;;;;;;5062017;28;20408;-81
2022/09/18 05:48:26;;;;;;;2.80;0.20;;;11.10;99.90;;;;;;5047689;28;20467;-80
2022/09/18 05:50:51;;;;;;;3.78;0.20;;;11.10;99.90;;;;;;5057709;28;20076;-81
2022/09/18 05:53:20;;;;;;;2.78;0.30;;;11.00;99.90;;;;;;5077528;28;20029;-81
2022/09/18 05:56:04;;;;;;;5.90;0.57;;;11.10;99.90;;;;;;5093746;28;20076;-81
2022/09/18 05:58:30;;;;;;;7.57;0.32;;;11.10;99.90;;;;;;5054912;28;20372;-80
2022/09/18 06:00:58;;;;;;;5.57;0.30;;;11.10;99.90;;;;;;5056979;28;20029;-79
2022/09/18 06:03:30;;;;;;;3.38;0.20;;;11.10;99.90;;;;;;5092805;28;20480;-81
2022/09/18 06:05:59;;;;;;;5.07;0.60;;;11.10;99.90;;;;;;5057307;28;20033;-79
2022/09/18 06:08:24;;;;;;;3.88;0.20;;;11.10;99.90;;;;;;5055514;28;20130;-81
2022/09/18 06:10:53;;;;;;;3.58;0.17;;;11.10;99.90;;;;;;5056872;28;20055;-81
2022/09/18 06:13:19;;;;;;;2.42;0.30;;;11.10;99.90;;;;;;5099802;28;20134;-81
2022/09/18 06:15:52;;;;;;;2.65;0.20;;;11.10;99.90;;;;;;5066486;28;20028;-80
2022/09/18 06:18:28;;;;;;;3.55;0.10;;;11.10;99.90;;;;;;5063567;28;20531;-81
2022/09/18 06:20:57;;;;;;;3.15;0.30;;;11.10;99.90;;;;;;5079657;28;20023;-80
2022/09/18 06:23:27;;;;;;;4.10;0.30;;;11.10;99.90;;;;;;5065137;28;20024;-81
2022/09/18 06:26:04;;;;;;;1.20;0.10;;;11.10;99.90;;;;;;5057775;28;20067;-80
2022/09/18 06:28:31;;;;;;;3.55;0.20;;;11.10;99.90;;;;;;5063090;28;20035;-80
2022/09/18 06:30:59;;;;;;;2.38;0.20;;;11.20;99.90;;;;;;5064344;28;20035;-81
2022/09/18 06:33:25;;;;;;;1.73;0.10;;;11.20;99.90;;;;;;5049743;28;20115;-81
2022/09/18 06:35:51;;;;;;;1.88;0.10;;;11.20;99.90;;;;;;5064803;28;20037;-81
2022/09/18 06:38:27;;;;;;;2.03;0.10;;;11.30;99.90;;;;;;5062909;28;20029;-81
2022/09/18 06:40:53;;;;;;;2.03;0.20;;;11.30;99.90;;;;;;5060313;28;20012;-80
2022/09/18 06:43:37;;;;;;;2.05;0.20;;;11.30;99.90;;;;;;5065959;28;20170;-81
2022/09/18 06:46:23;;;;;;;3.85;0.17;;;11.30;99.90;;;;;;5064523;28;20412;-81
2022/09/18 06:48:49;;;;;;;1.20;0.10;;;11.40;99.90;;;;;;5058844;28;20021;-82
2022/09/18 06:51:14;;;;;;;3.28;0.20;;;11.30;99.90;;;;;;5061695;28;20028;-84
2022/09/18 06:53:58;;;;;;;2.40;0.10;;;11.40;99.90;;;;;;5065957;28;20114;-81
2022/09/18 06:56:24;;;;;;;2.50;0.10;;;11.40;99.90;;;;;;5058158;28;20473;-81
2022/09/18 06:58:53;;;;;;;3.60;0.20;;;11.40;99.90;;;;;;5064859;28;20039;-82
2022/09/18 07:01:19;;;;;;;3.78;0.20;;;11.40;99.90;;;;;;5064419;28;20601;-83
2022/09/18 07:03:48;;;;;;;7.20;0.22;;;11.30;99.90;;;;;;5097689;28;20033;-81
2022/09/18 07:06:19;;;;;;;5.00;0.22;;;11.40;99.90;;;;;;5063006;28;20320;-82
2022/09/18 07:08:47;;;;;;;4.95;0.20;;;11.50;99.90;;;;;;5061165;28;20017;-81
2022/09/18 07:11:19;;;;;;;2.53;0.10;;;11.50;99.90;;;;;;5045241;28;20529;-82
2022/09/18 07:13:46;;;;;;;2.45;0.20;;;11.40;99.90;;;;;;5063617;28;20024;-80
2022/09/18 07:16:12;;;;;;;2.88;0.20;;;11.40;99.90;;;;;;5065669;28;20025;-80
2022/09/18 07:18:39;;;;;;;2.50;0.10;;;11.50;99.90;;;;;;5062747;28;20035;-80
2022/09/18 07:21:05;;;;;;;4.63;0.28;;;11.40;99.90;;;;;;5079960;28;20024;-81
2022/09/18 07:23:37;;;;;;;1.65;0.20;;;11.40;99.90;;;;;;5062158;28;20029;-81
2022/09/18 07:26:03;;;;;;;4.75;0.10;;;11.50;99.90;;;;;;5063127;28;20029;-81
2022/09/18 07:28:29;;;;;;;2.58;0.10;;;11.40;99.90;;;;;;5048551;28;20123;-81
2022/09/18 07:31:05;;;;;;;3.92;0.10;;;11.50;99.90;;;;;;5053218;28;20069;-84
2022/09/18 07:33:31;;;;;;;3.25;0.17;;;11.50;99.90;;;;;;5050217;28;20052;-81
2022/09/18 07:36:01;;;;;;;1.95;0.20;;;11.50;99.90;;;;;;5055745;28;20105;-81
2022/09/18 07:38:28;;;;;;;1.05;0.10;;;11.50;99.90;;;;;;5048216;28;20105;-80
2022/09/18 07:40:59;;;;;;;3.42;0.20;;;11.50;99.90;;;;;;5061567;28;20037;-79
2022/09/18 07:43:28;;;;;;;5.28;0.20;;;11.50;99.90;;;;;;5079924;28;20059;-81
2022/09/18 07:45:54;;;;;;;1.95;0.10;;;11.50;99.90;;;;;;5055493;28;20060;-81
2022/09/18 07:48:22;;;;;;;1.02;0.10;;;11.50;99.90;;;;;;5080751;28;20104;-83
2022/09/18 07:50:49;;;;;;;1.50;0.10;;;11.50;99.90;;;;;;5095918;28;20031;-83
2022/09/18 07:53:17;;;;;;;2.67;0.17;;;11.60;99.90;;;;;;5050112;28;20021;-80
2022/09/18 07:55:46;;;;;;;4.28;0.20;;;11.60;99.90;;;;;;5055533;28;20389;-80
2022/09/18 07:58:13;;;;;;;4.30;0.10;;;11.60;99.90;;;;;;5061120;28;20133;-81
2022/09/18 08:01:08;;;;;;;4.85;0.20;;;11.60;99.90;;;;;;5048455;28;20451;-80
2022/09/18 08:03:40;;;;;;;2.53;0.20;;;11.60;99.90;;;;;;5078334;28;20346;-81
2022/09/18 08:06:09;;;;;;;2.28;0.20;;;11.50;99.90;;;;;;5096932;28;20041;-81
2022/09/18 08:08:35;;;;;;;2.08;0.10;;;11.60;99.90;;;;;;5062244;28;20384;-82
2022/09/18 08:11:19;;;;;;;3.15;0.10;;;11.60;99.90;;;;;;5064224;28;20163;-82
2022/09/18 08:13:58;;;;;;;4.40;0.40;;;11.60;99.90;;;;;;5058241;28;20505;-81
2022/09/18 08:16:42;;;;;;;4.10;0.20;;;11.60;99.90;;;;;;5047569;28;20071;-81
2022/09/18 08:19:17;;;;;;;2.00;0.20;;;11.70;99.90;;;;;;5060147;28;20020;-82
2022/09/18 08:21:58;;;;;;;6.68;0.57;;;11.70;99.90;;;;;;5063133;28;20032;-85
2022/09/18 08:24:24;;;;;;;3.55;0.20;;;11.70;99.90;;;;;;5045628;28;20063;-83
2022/09/18 08:26:50;;;;;;;1.73;0.20;;;11.80;99.90;;;;;;5046664;28;20068;-82
2022/09/18 08:29:18;;;;;;;1.83;0.20;;;11.80;99.90;;;;;;5097691;28;20025;-81
2022/09/18 08:31:49;;;;;;;2.65;0.20;;;11.80;99.90;;;;;;5063384;28;20083;-78
2022/09/18 08:34:15;;;;;;;1.98;0.20;;;11.90;99.90;;;;;;5062217;28;20409;-81
2022/09/18 08:36:41;;;;;;;4.90;0.20;;;11.90;99.90;;;;;;5046379;28;20091;-81
2022/09/18 08:39:22;;;;;;;2.75;0.15;;;11.90;99.90;;;;;;5042519;28;20032;-82
2022/09/18 08:42:14;;;;;;;2.53;0.25;;;11.80;99.90;;;;;;5075101;28;20509;-82
2022/09/18 08:45:05;;;;;;;1.85;0.10;;;11.80;99.90;;;;;;5060665;28;20021;-81
2022/09/18 08:47:41;;;;;;;4.10;0.30;;;11.80;99.90;;;;;;5075462;28;20071;-82
2022/09/18 08:50:23;;;;;;;2.05;0.20;;;11.80;99.90;;;;;;5044505;28;20119;-81
2022/09/18 08:53:01;;;;;;;2.08;0.22;;;11.80;99.90;;;;;;5058981;28;20473;-81
2022/09/18 08:55:44;;;;;;;3.10;0.10;;;11.90;99.90;;;;;;5061708;28;20041;-80
2022/09/18 08:58:29;;;;;;;1.85;0.10;;;11.80;99.90;;;;;;5062959;28;20044;-81
2022/09/18 09:01:05;;;;;;;2.00;0.10;;;11.80;99.90;;;;;;5094104;28;20020;-83
2022/09/18 09:03:47;;;;;;;3.35;0.10;;;11.80;99.90;;;;;;5063619;28;20051;-81
2022/09/18 09:06:44;;;;;;;2.35;0.10;;;11.80;99.90;;;;;;5095361;28;20040;-81
2022/09/18 09:09:36;;;;;;;1.15;0.10;;;11.90;99.90;;;;;;5077347;28;20490;-80
2022/09/18 09:12:11;;;;;;;3.13;0.10;;;11.80;99.90;;;;;;5060284;28;20037;-82
2022/09/18 09:15:22;;;;;;;1.30;0.10;;;11.80;99.90;;;;;;5061067;28;20059;-83
2022/09/18 09:18:15;;;;;;;0.98;0.10;;;11.80;99.90;;;;;;5061692;28;20061;-83
2022/09/18 09:20:51;;;;;;;2.28;0.20;;;11.80;99.90;;;;;;5060443;28;20021;-82
2022/09/18 09:24:16;;;;;;;2.00;0.10;;;11.90;99.90;;;;;;5059297;28;20576;-82
2022/09/18 09:27:16;;;;;;;2.38;0.15;;;11.70;99.90;;;;;;5044321;28;20037;-81
2022/09/18 09:30:04;;;;;;;1.33;0.10;;;11.90;99.90;;;;;;5043093;28;20028;-81
2022/09/18 09:32:56;;;;;;;2.53;0.10;;;11.80;99.90;;;;;;5042972;28;20238;-81
2022/09/18 09:35:44;;;;;;;1.65;0.10;;;12.00;99.90;;;;;;5044220;28;20057;-80
2022/09/18 09:38:45;;;;;;;1.80;0.10;;;12.10;99.90;;;;;;5043294;28;20061;-82
2022/09/18 09:41:14;;;;;;;1.58;0.20;;;12.10;99.90;;;;;;5027620;28;20025;-83
2022/09/18 09:43:46;;;;;;;2.33;0.20;;;12.10;99.90;;;;;;5027489;28;20071;-82
2022/09/18 09:46:51;;;;;;;2.22;0.43;;;12.20;99.90;;;;;;5043737;28;20040;-81
2022/09/18 09:49:24;;;;;;;1.23;0.13;;;12.20;99.90;;;;;;5010585;28;20121;-79
2022/09/18 09:52:16;;;;;;;4.07;0.60;;;12.20;99.90;;;;;;5047900;28;20040;-82
2022/09/18 09:54:43;;;;;;;2.88;0.22;;;12.10;99.90;;;;;;5047004;28;20068;-82
2022/09/18 09:57:11;;;;;;;1.60;0.20;;;12.20;99.90;;;;;;5041960;28;20354;-80
2022/09/18 09:59:52;;;;;;;1.52;0.20;;;12.30;99.90;;;;;;5062236;28;20585;-82
2022/09/18 10:02:33;;;;;;;0.90;0.20;;;12.50;99.90;;;;;;5063013;28;20390;-82
2022/09/18 10:05:05;;;;;;;3.53;0.30;;;12.60;99.90;;;;;;5065054;28;20745;-81
2022/09/18 10:07:49;;;;;;;2.35;0.30;;;12.60;99.90;;;;;;5060188;28;20040;-83
2022/09/18 10:10:29;;;;;;;1.60;0.20;;;12.60;99.90;;;;;;5064458;28;20044;-80
2022/09/18 10:13:03;;;;;;;;;;;12.80;99.90;;;;;;5063323;28;20024;-82
2022/09/18 10:15:40;;;;;;;2.42;0.30;;;12.80;99.90;;;;;;5065413;28;19913;-82
2022/09/18 10:18:19;;;;;;;3.47;0.30;;;12.70;99.90;;;;;;5063088;28;20447;-83
2022/09/18 10:20:47;;;;;;;3.67;0.22;;;12.70;99.90;;;;;;5064233;28;20036;-82
2022/09/18 10:23:37;;;;;;;2.70;0.50;;;12.80;99.90;;;;;;5063236;28;20495;-83
2022/09/18 10:26:05;;;;;;;3.25;0.20;;;12.80;99.90;;;;;;5097277;28;20548;-83
2022/09/18 10:28:31;;;;;;;2.97;0.20;;;12.80;99.90;;;;;;5047677;28;20391;-82
2022/09/18 10:31:04;;;;;;;3.45;0.60;;;12.70;99.90;;;;;;5059325;28;20111;-81
2022/09/18 10:33:35;;;;;;;2.83;0.20;;;12.80;99.90;;;;;;5064441;28;20021;-81
2022/09/18 10:36:36;;;;;;;2.53;0.20;;;12.80;99.90;;;;;;5061220;28;20027;-82
2022/09/18 10:39:28;;;;;;;1.60;0.10;;;12.90;99.90;;;;;;5078457;28;20029;-83
2022/09/18 10:41:59;;;;;;;2.97;0.10;;;13.00;99.90;;;;;;5099978;28;20427;-82
2022/09/18 10:44:30;;;;;;;1.67;0.10;;;13.00;99.90;;;;;;5061704;28;20052;-84
2022/09/18 10:47:17;;;;;;;3.70;0.20;;;13.00;99.90;;;;;;5063800;28;20488;-83
2022/09/18 10:49:50;;;;;;;0.98;0.10;;;12.90;99.90;;;;;;5081460;28;20101;-83
2022/09/18 10:52:34;;;;;;;2.00;0.10;;;12.90;99.90;;;;;;5063244;28;20025;-81
2022/09/18 10:55:28;;;;;;;3.45;0.20;;;12.90;99.90;;;;;;5062839;28;20077;-82
2022/09/18 10:58:05;;;;;;;3.58;0.20;;;12.90;99.90;;;;;;5057139;28;20052;-81
2022/09/18 11:00:38;;;;;;;1.52;0.20;;;12.90;99.90;;;;;;5077782;28;20027;-81
2022/09/18 11:03:40;;;;;;;3.10;0.10;;;12.90;99.90;;;;;;5066090;28;20472;-80
2022/09/18 11:06:13;;;;;;;1.48;0.10;;;13.00;99.90;;;;;;5065708;28;20033;-82
2022/09/18 11:08:43;;;;;;;4.43;0.30;;;13.00;99.90;;;;;;5063234;28;20098;-80
2022/09/18 11:11:20;;;;;;;4.20;0.13;;;13.00;99.90;;;;;;5055050;28;20044;-81
2022/09/18 11:14:00;;;;;;;4.15;0.65;;;13.00;99.90;;;;;;5048088;28;20028;-82
2022/09/18 11:16:41;;;;;;;3.45;0.20;;;12.90;99.90;;;;;;5078751;28;20028;-80
2022/09/18 11:19:26;;;;;;;3.03;0.10;;;13.00;99.90;;;;;;5064223;28;20477;-81
2022/09/18 11:21:58;;;;;;;3.20;0.13;;;13.00;99.90;;;;;;5060862;28;20123;-80
2022/09/18 11:24:30;;;;;;;2.65;0.10;;;13.00;99.90;;;;;;5063931;28;20025;-82
2022/09/18 11:27:23;;;;;;;2.15;0.20;;;12.90;99.90;;;;;;5054012;28;20052;-84
2022/09/18 11:30:14;;;;;;;3.25;0.20;;;12.90;99.90;;;;;;5083058;28;20028;-82
2022/09/18 11:32:45;;;;;;;1.63;0.10;;;12.80;99.90;;;;;;5064199;28;20032;-80
2022/09/18 11:35:16;;;;;;;1.05;0.10;;;12.80;99.90;;;;;;5056301;28;20025;-83
2022/09/18 11:37:55;;;;;;;1.02;0.10;;;12.80;99.90;;;;;;5061560;28;20051;-82
2022/09/18 11:40:30;;;;;;;3.78;0.30;;;12.80;99.90;;;;;;5082076;28;20531;-81
2022/09/18 11:42:57;;;;;;;1.75;0.10;;;12.90;99.90;;;;;;5062760;28;20040;-84
2022/09/18 11:45:42;;;;;;;3.45;0.10;;;12.70;99.90;;;;;;5056754;28;20074;-80
2022/09/18 11:48:28;;;;;;;1.75;0.20;;;12.90;99.90;;;;;;5067782;28;20036;-80
2022/09/18 11:51:00;;;;;;;3.70;0.20;;;12.80;99.90;;;;;;5045194;28;20035;-83
2022/09/18 11:53:54;;;;;;;2.63;0.50;;;12.70;99.90;;;;;;5099429;28;20035;-81
2022/09/18 11:56:36;;;;;;;1.85;0.10;;;12.70;99.90;;;;;;5047093;28;20021;-83
2022/09/18 11:59:38;;;;;;;2.85;0.22;;;12.70;99.90;;;;;;5061599;28;20016;-84
2022/09/18 12:02:21;;;;;;;1.20;0.10;;;12.60;99.90;;;;;;5030905;28;20381;-81
2022/09/18 12:04:58;;;;;;;3.55;0.10;;;12.70;99.90;;;;;;5064300;28;20032;-80
2022/09/18 12:07:36;;;;;;;3.33;0.20;;;12.70;99.90;;;;;;5061675;28;20036;-81
2022/09/18 12:10:20;;;;;;;2.50;0.20;;;12.70;99.90;;;;;;5059577;28;20386;-82
2022/09/18 12:13:05;;;;;;;2.20;0.10;;;12.70;99.90;;;;;;5063201;28;20070;-83
2022/09/18 12:15:38;;;;;;;2.67;0.10;;;12.60;99.90;;;;;;5047308;28;20029;-80
2022/09/18 12:18:17;;;;;;;2.53;0.10;;;12.70;99.90;;;;;;5063489;28;20039;-82
2022/09/18 12:20:48;;;;;;;2.17;0.30;;;12.70;99.90;;;;;;5079931;28;20071;-81
2022/09/18 12:23:23;;;;;;;2.72;0.17;;;12.60;99.90;;;;;;5061188;28;20275;-83
2022/09/18 12:26:13;;;;;;;2.92;0.10;;;12.60;99.90;;;;;;5061773;28;20028;-81
2022/09/18 12:29:05;;;;;;;1.25;0.10;;;12.50;99.90;;;;;;5062326;28;20025;-83
2022/09/18 12:32:02;;;;;;;2.50;0.20;;;12.50;99.90;;;;;;5063810;28;20392;-82
2022/09/18 12:34:44;;;;;;;2.67;0.25;;;12.50;99.90;;;;;;5058146;28;20643;-81
2022/09/18 12:37:47;;;;;;;2.92;0.10;;;12.50;99.90;;;;;;5059430;28;20067;-81
2022/09/18 12:41:00;;;;;;;3.20;0.15;;;12.60;99.90;;;;;;5063113;28;20033;-81
2022/09/18 12:43:42;;;;;;;1.75;0.10;;;12.60;99.90;;;;;;5064873;28;20142;-81
2022/09/18 12:46:08;;;;;;;2.45;0.10;;;12.50;99.90;;;;;;5064207;28;20431;-81
2022/09/18 12:48:48;;;;;;;1.33;0.10;;;12.60;99.90;;;;;;5058588;28;20050;-81
2022/09/18 12:51:56;;;;;;;2.65;0.10;;;12.50;99.90;;;;;;5059174;28;20025;-82
2022/09/18 12:54:34;;;;;;;2.45;0.10;;;12.60;99.90;;;;;;5044295;28;20481;-81
2022/09/18 12:57:09;;;;;;;1.42;0.10;;;12.50;99.90;;;;;;5010266;28;20025;-81
2022/09/18 12:59:53;;;;;;;3.40;0.20;;;12.50;99.90;;;;;;5028210;28;20110;-80
2022/09/18 13:02:28;;;;;;;2.42;0.20;;;12.50;99.90;;;;;;5026980;28;20033;-80
2022/09/18 13:05:02;;;;;;;3.75;0.20;;;12.50;99.90;;;;;;5027935;28;20087;-81
2022/09/18 13:07:39;;;;;;;2.55;0.10;;;12.40;99.90;;;;;;5010204;28;20808;-80
2022/09/18 13:10:39;;;;;;;1.50;0.08;;;12.20;99.90;;;;;;5042872;28;20065;-82
2022/09/18 13:13:25;;;;;;;;;;;12.10;99.90;;;;;;5015665;28;20044;-81
2022/09/18 13:16:07;;;;;;;2.42;0.10;;;11.90;99.90;;;;;;5010950;28;20290;-83
2022/09/18 13:18:33;;;;;;;1.92;0.10;;;11.80;99.90;;;;;;5038943;28;20033;-83
2022/09/18 13:21:03;;;;;;;3.33;0.10;;;11.70;99.90;;;;;;5044810;28;20126;-80
2022/09/18 13:23:35;;;;;;;2.65;0.10;;;11.50;99.90;;;;;;5026344;28;20500;-82
2022/09/18 13:26:03;;;;;;;2.38;0.13;;;11.50;99.90;;;;;;5027070;28;20053;-80
2022/09/18 13:28:29;;;;;;;4.68;0.10;;;11.50;99.90;;;;;;5012379;28;20433;-80